WetterOnline ( http://www.wetteronline.de )

Wetter aktuell Greifswalder Bodden

Aktuelles Wetter: Greifswalder Oie (12m)

6-stündlich | Neueste Meldungen
Ortszeit Temperatur Wetter
Mo, 19.11. 19:00 7.0° C bedeckt
Mo, 19.11. 13:00 7.2° C bewölkt
Mo, 19.11. 7:00 6.7° C bewölkt
Mo, 19.11. 1:00 6.5° C bewölkt
So, 18.11. 19:00 7.5° C leichter Regen
So, 18.11. 13:00 8.2° C bedeckt
So, 18.11. 7:00 5.9° C bedeckt
So, 18.11. 1:00 5.8° C wolkig
Ortszeit Temperatur Wetter
Mo, 19.11. 20:00 6.7° C bewölkt
Mo, 19.11. 19:50 6.7° C bewölkt
Mo, 19.11. 19:40 6.8° C bedeckt
Mo, 19.11. 19:30 6.9° C bewölkt
Mo, 19.11. 19:20 6.9° C bewölkt
Mo, 19.11. 19:10 7.0° C bedeckt
Mo, 19.11. 19:00 7.0° C bedeckt
Mo, 19.11. 18:30 6.9° C bedeckt
Mo, 19.11. 18:00 6.9° C bewölkt
Mo, 19.11. 17:30 6.8° C bedeckt
Mo, 19.11. 17:00 6.8° C bedeckt
Ortszeit Relative Feuchte Sichtweite
Mo, 19.11. 19:00 72% 70 km
Mo, 19.11. 13:00 75% 19 km
Mo, 19.11. 7:00 76% 65 km
Mo, 19.11. 1:00 79% 65 km
So, 18.11. 19:00 82% 10 km
So, 18.11. 13:00 79% 45 km
So, 18.11. 7:00 81% 14 km
So, 18.11. 1:00 76% 16 km
Ortszeit Relative Feuchte Sichtweite
Mo, 19.11. 20:00 65% 65 km
Mo, 19.11. 19:50 65% -
Mo, 19.11. 19:40 68% -
Mo, 19.11. 19:30 72% 65 km
Mo, 19.11. 19:20 72% -
Mo, 19.11. 19:10 74% -
Mo, 19.11. 19:00 72% 70 km
Mo, 19.11. 18:30 69% 70 km
Mo, 19.11. 18:00 69% 70 km
Mo, 19.11. 17:30 71% 70 km
Mo, 19.11. 17:00 69% 70 km
Ortszeit Niederschlagsmenge Niederschlagsart
Mo, 19.11. 19:00 0.0 l/m2 in 12 Std. -
Mo, 19.11. 13:00 0.0 l/m2 in 6 Std. -
Mo, 19.11. 7:00 1 l/m2 in 12 Std. Regen
Mo, 19.11. 1:00 0.6 l/m2 in 6 Std. Regen
So, 18.11. 19:00 0.1 l/m2 in 12 Std. Regen
So, 18.11. 13:00 0.1 l/m2 in 6 Std. Regen
So, 18.11. 7:00 0.0 l/m2 in 12 Std. -
So, 18.11. 1:00 0.0 l/m2 in 6 Std. -
Ortszeit Niederschlagsmenge Niederschlagsart
Mo, 19.11. 20:00 0.0 l/m2 in 1 Std. -
Mo, 19.11. 19:50 keine Meldung -
Mo, 19.11. 19:40 keine Meldung -
Mo, 19.11. 19:30 0.0 l/m2 in 1 Std. -
Mo, 19.11. 19:20 keine Meldung -
Mo, 19.11. 19:10 keine Meldung -
Mo, 19.11. 19:00 0.0 l/m2 in 1 Std. -
Mo, 19.11. 18:30 0.0 l/m2 in 1 Std. -
Mo, 19.11. 18:00 0.0 l/m2 in 1 Std. -
Mo, 19.11. 17:30 0.0 l/m2 in 1 Std. -
Mo, 19.11. 17:00 0.0 l/m2 in 1 Std. -
Ortszeit Stärke Spitze Richtung
km/h Bft. km/h Grad Sektor
Mo, 19.11. 19:00 37 5 56 90° O
Mo, 19.11. 13:00 39 6 57 90° O
Mo, 19.11. 7:00 39 6 63 70° O
Mo, 19.11. 1:00 30 5 67 60° NO
So, 18.11. 19:00 37 5 59 50° NO
So, 18.11. 13:00 25 4 43 50° NO
So, 18.11. 7:00 28 4 35 340° N
So, 18.11. 1:00 0 0 14 - -
Ortszeit Stärke Spitze Richtung
km/h Bft. km/h Grad Sektor
Mo, 19.11. 20:00 40 6 54 90° O
Mo, 19.11. 19:50 40 6 - 90° O
Mo, 19.11. 19:40 40 6 - 90° O
Mo, 19.11. 19:30 40 6 54 90° O
Mo, 19.11. 19:20 40 6 - 90° O
Mo, 19.11. 19:10 35 5 - 90° O
Mo, 19.11. 19:00 37 5 54 90° O
Mo, 19.11. 18:30 40 6 54 90° O
Mo, 19.11. 18:00 39 6 54 100° O
Mo, 19.11. 17:30 39 6 54 90° O
Mo, 19.11. 17:00 37 5 52 90° O
Ortszeit Untergrenze Bedeckung Gattung
total tief tief mittel hoch
Mo, 19.11. 19:00 690 m 8/8 8/8 - - -
Mo, 19.11. 13:00 630 m 7/8 7/8 - - -
Mo, 19.11. 7:00 660 m 7/8 7/8 - - -
Mo, 19.11. 1:00 540 m 7/8 7/8 - - -
So, 18.11. 19:00 510 m 8/8 7/8 - - -
So, 18.11. 13:00 600 m 8/8 8/8 - - -
So, 18.11. 7:00 510 m 8/8 8/8 - - -
So, 18.11. 1:00 8100 m 8/8 0/8 - - -
Ortszeit Bedeckungsgrad in Achtel und Wolkenuntergrenze
Mo, 19.11. 20:00 1(720m) 7(1500m) 7(1500m)
Mo, 19.11. 19:50 1(720m) 7(1500m)
Mo, 19.11. 19:40 1(690m) 2(900m) 8(1500m)
Mo, 19.11. 19:30 2(720m) 7(1500m)
Mo, 19.11. 19:20 2(720m) 7(1500m)
Mo, 19.11. 19:10 1(690m) 8(1500m)
Mo, 19.11. 19:00 1(690m) 8(1500m)
Mo, 19.11. 18:30 1(690m) 8(1500m)
Mo, 19.11. 18:00 2(720m) 7(1500m)
Mo, 19.11. 17:30 8(1800m) 8(1800m)
Mo, 19.11. 17:00 2(720m) 8(1800m)
Ortszeit Luftdruck NN (hPa) Tendenz (hPa in 3 Std.)
Mo, 19.11. 19:00 1027 + 0,3
Mo, 19.11. 13:00 1027 - 0,5
Mo, 19.11. 7:00 1026 - 0,5
Mo, 19.11. 1:00 1028 - 1,4
So, 18.11. 19:00 1030 - 1,0
So, 18.11. 13:00 1032 - 1,4
So, 18.11. 7:00 1034 - 2,3
So, 18.11. 1:00 1038 - 0,8
Ortszeit Luftdruck NN (hPa) Tendenz (hPa in 3 Std.)
Mo, 19.11. 20:00 1027 + 0,1
Mo, 19.11. 19:50 1027 keine Meldung
Mo, 19.11. 19:40 1027 keine Meldung
Mo, 19.11. 19:30 1027 + 0,3
Mo, 19.11. 19:20 1027 keine Meldung
Mo, 19.11. 19:10 1027 keine Meldung
Mo, 19.11. 19:00 1027 + 0,3
Mo, 19.11. 18:30 1027 + 0,3
Mo, 19.11. 18:00 1027 + 0,1
Mo, 19.11. 17:30 1027 + 0,1
Mo, 19.11. 17:00 1027 0,0
Ortszeit Schneehöhe (cm)
Mo, 19.11. 19:00 0
Mo, 19.11. 13:00 0
Mo, 19.11. 7:00 0
Mo, 19.11. 1:00 0
So, 18.11. 19:00 0
So, 18.11. 13:00 0
So, 18.11. 7:00 0
So, 18.11. 1:00 0
Ortszeit Schneehöhe (cm)
Mo, 19.11. 20:00 0
Mo, 19.11. 19:50 0
Mo, 19.11. 19:40 0
Mo, 19.11. 19:30 0
Mo, 19.11. 19:20 0
Mo, 19.11. 19:10 0
Mo, 19.11. 19:00 0
Mo, 19.11. 18:30 0
Mo, 19.11. 18:00 0
Mo, 19.11. 17:30 0
Mo, 19.11. 17:00 0
Link zu dieser Seite / Seite empfehlen

Das Wetter in ...